Mobile, Arizona
Current Conditions -  °F | °C
As of 8:35 PM on Tuesday 21 Oct 2014 (Local Time) from KCGZ Reporting Station
Clear Clear  
Wind Chill: 73°   Ceiling: Unl
Heat Index: 73°   Visibility: 10mi
Dew Point: 46°   Wind: 0mph
Humidity: 38%   Direction: NA
Pressure: 29.84"   Gusts: NA
Location:  32.9044°N, 112.146°W
Report Text: KCGZ 220335Z AUTO 00000KT 10SM CLR 23/08 A2984 RMK AO1
Loading
Personal Weather Stations






























Interactive Weather Map
Tropical Storm Tracking
New forecast layout! Learn more

10-Day Weather Forecast

Advertisements
Track Severe Weather on mobile